sensor_id;sensor_type;location;lat;lon;timestamp;temperature;humidity
17442;DHT22;8838;50.144;8.176;2023-05-02T00:02:19;10.80;99.90
17442;DHT22;8838;50.144;8.176;2023-05-02T00:04:46;10.70;99.90
17442;DHT22;8838;50.144;8.176;2023-05-02T00:07:15;10.70;99.90
17442;DHT22;8838;50.144;8.176;2023-05-02T00:09:41;10.70;99.90
17442;DHT22;8838;50.144;8.176;2023-05-02T00:12:08;10.60;99.90
17442;DHT22;8838;50.144;8.176;2023-05-02T00:14:35;10.60;99.90
17442;DHT22;8838;50.144;8.176;2023-05-02T00:17:02;10.60;99.90
17442;DHT22;8838;50.144;8.176;2023-05-02T00:19:28;10.60;99.90
17442;DHT22;8838;50.144;8.176;2023-05-02T00:21:55;10.50;99.90
17442;DHT22;8838;50.144;8.176;2023-05-02T00:24:23;10.50;99.90
17442;DHT22;8838;50.144;8.176;2023-05-02T00:26:51;10.50;99.90
17442;DHT22;8838;50.144;8.176;2023-05-02T00:29:18;10.50;99.90
17442;DHT22;8838;50.144;8.176;2023-05-02T00:31:45;10.50;99.90
17442;DHT22;8838;50.144;8.176;2023-05-02T00:34:12;10.40;99.90
17442;DHT22;8838;50.144;8.176;2023-05-02T00:36:39;10.50;99.90
17442;DHT22;8838;50.144;8.176;2023-05-02T00:39:05;10.50;99.90
17442;DHT22;8838;50.144;8.176;2023-05-02T00:41:34;10.40;99.90
17442;DHT22;8838;50.144;8.176;2023-05-02T00:44:00;10.40;99.90
17442;DHT22;8838;50.144;8.176;2023-05-02T00:46:27;10.40;99.90
17442;DHT22;8838;50.144;8.176;2023-05-02T00:48:55;10.30;99.90
17442;DHT22;8838;50.144;8.176;2023-05-02T00:51:21;10.30;99.90
17442;DHT22;8838;50.144;8.176;2023-05-02T00:53:48;10.30;99.90
17442;DHT22;8838;50.144;8.176;2023-05-02T00:56:16;10.20;99.90
17442;DHT22;8838;50.144;8.176;2023-05-02T00:58:45;10.20;99.90
17442;DHT22;8838;50.144;8.176;2023-05-02T01:01:24;10.20;99.90
17442;DHT22;8838;50.144;8.176;2023-05-02T01:03:59;10.20;99.90
17442;DHT22;8838;50.144;8.176;2023-05-02T01:06:38;10.20;99.90
17442;DHT22;8838;50.144;8.176;2023-05-02T01:09:25;10.20;99.90
17442;DHT22;8838;50.144;8.176;2023-05-02T01:12:00;10.20;99.90
17442;DHT22;8838;50.144;8.176;2023-05-02T01:14:32;10.20;99.90
17442;DHT22;8838;50.144;8.176;2023-05-02T01:17:02;10.20;99.90
17442;DHT22;8838;50.144;8.176;2023-05-02T01:19:33;10.20;99.90
17442;DHT22;8838;50.144;8.176;2023-05-02T01:22:04;10.20;99.90
17442;DHT22;8838;50.144;8.176;2023-05-02T01:24:38;10.20;99.90
17442;DHT22;8838;50.144;8.176;2023-05-02T01:27:13;10.10;99.90
17442;DHT22;8838;50.144;8.176;2023-05-02T01:29:43;10.10;99.90
17442;DHT22;8838;50.144;8.176;2023-05-02T01:32:11;10.00;99.90
17442;DHT22;8838;50.144;8.176;2023-05-02T01:34:40;10.00;99.90
17442;DHT22;8838;50.144;8.176;2023-05-02T01:37:09;9.90;99.90
17442;DHT22;8838;50.144;8.176;2023-05-02T01:39:37;10.00;99.90
17442;DHT22;8838;50.144;8.176;2023-05-02T01:42:05;9.90;99.90
17442;DHT22;8838;50.144;8.176;2023-05-02T01:44:33;9.90;99.90
17442;DHT22;8838;50.144;8.176;2023-05-02T01:47:04;9.80;99.90
17442;DHT22;8838;50.144;8.176;2023-05-02T01:49:32;9.90;99.90
17442;DHT22;8838;50.144;8.176;2023-05-02T01:52:04;9.90;99.90
17442;DHT22;8838;50.144;8.176;2023-05-02T01:54:32;9.80;99.90
17442;DHT22;8838;50.144;8.176;2023-05-02T01:57:01;9.80;99.90
17442;DHT22;8838;50.144;8.176;2023-05-02T01:59:31;9.70;99.90
17442;DHT22;8838;50.144;8.176;2023-05-02T02:01:59;9.70;99.90
17442;DHT22;8838;50.144;8.176;2023-05-02T02:04:28;9.70;99.90
17442;DHT22;8838;50.144;8.176;2023-05-02T02:06:59;9.70;99.90
17442;DHT22;8838;50.144;8.176;2023-05-02T02:09:28;9.60;99.90
17442;DHT22;8838;50.144;8.176;2023-05-02T02:12:00;9.60;99.90
17442;DHT22;8838;50.144;8.176;2023-05-02T02:14:33;9.50;99.90
17442;DHT22;8838;50.144;8.176;2023-05-02T02:17:01;9.50;99.90
17442;DHT22;8838;50.144;8.176;2023-05-02T02:19:32;9.50;99.90
17442;DHT22;8838;50.144;8.176;2023-05-02T02:22:00;9.50;99.90
17442;DHT22;8838;50.144;8.176;2023-05-02T02:24:30;9.40;99.90
17442;DHT22;8838;50.144;8.176;2023-05-02T02:26:57;9.40;99.90
17442;DHT22;8838;50.144;8.176;2023-05-02T02:29:24;9.40;99.90
17442;DHT22;8838;50.144;8.176;2023-05-02T02:31:51;9.40;99.90
17442;DHT22;8838;50.144;8.176;2023-05-02T02:34:18;9.40;99.90
17442;DHT22;8838;50.144;8.176;2023-05-02T02:36:56;9.30;99.90
17442;DHT22;8838;50.144;8.176;2023-05-02T02:39:34;9.30;99.90
17442;DHT22;8838;50.144;8.176;2023-05-02T02:42:10;9.30;99.90
17442;DHT22;8838;50.144;8.176;2023-05-02T02:44:46;9.20;99.90
17442;DHT22;8838;50.144;8.176;2023-05-02T02:47:20;9.20;99.90
17442;DHT22;8838;50.144;8.176;2023-05-02T02:49:53;9.20;99.90
17442;DHT22;8838;50.144;8.176;2023-05-02T02:52:31;9.20;99.90
17442;DHT22;8838;50.144;8.176;2023-05-02T02:55:03;9.20;99.90
17442;DHT22;8838;50.144;8.176;2023-05-02T02:57:38;9.20;99.90
17442;DHT22;8838;50.144;8.176;2023-05-02T03:00:12;9.20;99.90
17442;DHT22;8838;50.144;8.176;2023-05-02T03:02:42;9.20;99.90
17442;DHT22;8838;50.144;8.176;2023-05-02T03:05:12;9.20;99.90
17442;DHT22;8838;50.144;8.176;2023-05-02T03:07:40;9.20;99.90
17442;DHT22;8838;50.144;8.176;2023-05-02T03:10:07;9.30;99.90
17442;DHT22;8838;50.144;8.176;2023-05-02T03:12:36;9.30;99.90
17442;DHT22;8838;50.144;8.176;2023-05-02T03:15:13;9.30;99.90
17442;DHT22;8838;50.144;8.176;2023-05-02T03:17:44;9.40;99.90
17442;DHT22;8838;50.144;8.176;2023-05-02T03:20:11;9.50;99.90
17442;DHT22;8838;50.144;8.176;2023-05-02T03:22:39;9.40;99.90
17442;DHT22;8838;50.144;8.176;2023-05-02T03:25:07;9.40;99.90
17442;DHT22;8838;50.144;8.176;2023-05-02T03:27:33;9.40;99.90
17442;DHT22;8838;50.144;8.176;2023-05-02T03:30:00;9.40;99.90
17442;DHT22;8838;50.144;8.176;2023-05-02T03:32:27;9.50;99.90
17442;DHT22;8838;50.144;8.176;2023-05-02T03:34:54;9.50;99.90
17442;DHT22;8838;50.144;8.176;2023-05-02T03:37:23;9.50;99.90
17442;DHT22;8838;50.144;8.176;2023-05-02T03:39:51;9.50;99.90
17442;DHT22;8838;50.144;8.176;2023-05-02T03:42:17;9.40;99.90
17442;DHT22;8838;50.144;8.176;2023-05-02T03:44:44;9.40;99.90
17442;DHT22;8838;50.144;8.176;2023-05-02T03:47:11;9.40;99.90
17442;DHT22;8838;50.144;8.176;2023-05-02T03:49:39;9.40;99.90
17442;DHT22;8838;50.144;8.176;2023-05-02T03:52:06;9.50;99.90
17442;DHT22;8838;50.144;8.176;2023-05-02T03:54:32;9.50;99.90
17442;DHT22;8838;50.144;8.176;2023-05-02T03:57:01;9.50;99.90
17442;DHT22;8838;50.144;8.176;2023-05-02T03:59:30;9.50;99.90
17442;DHT22;8838;50.144;8.176;2023-05-02T04:01:57;9.60;99.90
17442;DHT22;8838;50.144;8.176;2023-05-02T04:04:24;9.60;99.90
17442;DHT22;8838;50.144;8.176;2023-05-02T04:06:51;9.60;99.90
17442;DHT22;8838;50.144;8.176;2023-05-02T04:09:18;9.60;99.90
17442;DHT22;8838;50.144;8.176;2023-05-02T04:11:49;9.60;99.90
17442;DHT22;8838;50.144;8.176;2023-05-02T04:14:17;9.70;99.90
17442;DHT22;8838;50.144;8.176;2023-05-02T04:16:47;9.70;99.90
17442;DHT22;8838;50.144;8.176;2023-05-02T04:19:14;9.70;99.90
17442;DHT22;8838;50.144;8.176;2023-05-02T04:21:41;9.70;99.90
17442;DHT22;8838;50.144;8.176;2023-05-02T04:24:08;9.70;99.90
17442;DHT22;8838;50.144;8.176;2023-05-02T04:26:35;9.70;99.90
17442;DHT22;8838;50.144;8.176;2023-05-02T04:29:02;9.70;99.90
17442;DHT22;8838;50.144;8.176;2023-05-02T04:31:31;9.70;99.90
17442;DHT22;8838;50.144;8.176;2023-05-02T04:33:58;9.70;99.90
17442;DHT22;8838;50.144;8.176;2023-05-02T04:36:25;9.60;99.90
17442;DHT22;8838;50.144;8.176;2023-05-02T04:38:52;9.70;99.90
17442;DHT22;8838;50.144;8.176;2023-05-02T04:41:19;9.70;99.90
17442;DHT22;8838;50.144;8.176;2023-05-02T04:43:47;9.80;99.90
17442;DHT22;8838;50.144;8.176;2023-05-02T04:46:15;9.80;99.90
17442;DHT22;8838;50.144;8.176;2023-05-02T04:48:44;9.80;99.90
17442;DHT22;8838;50.144;8.176;2023-05-02T04:51:11;9.70;99.90
17442;DHT22;8838;50.144;8.176;2023-05-02T04:53:38;9.80;99.90
17442;DHT22;8838;50.144;8.176;2023-05-02T04:56:05;9.80;99.90
17442;DHT22;8838;50.144;8.176;2023-05-02T04:58:32;9.70;99.90
17442;DHT22;8838;50.144;8.176;2023-05-02T05:01:00;9.70;99.90
17442;DHT22;8838;50.144;8.176;2023-05-02T05:03:27;9.60;99.90
17442;DHT22;8838;50.144;8.176;2023-05-02T05:05:56;9.60;99.90
17442;DHT22;8838;50.144;8.176;2023-05-02T05:08:23;9.60;99.90
17442;DHT22;8838;50.144;8.176;2023-05-02T05:10:50;9.60;99.90
17442;DHT22;8838;50.144;8.176;2023-05-02T05:13:16;9.70;99.90
17442;DHT22;8838;50.144;8.176;2023-05-02T05:15:43;9.70;99.90
17442;DHT22;8838;50.144;8.176;2023-05-02T05:18:10;9.80;99.90
17442;DHT22;8838;50.144;8.176;2023-05-02T05:20:37;9.90;99.90
17442;DHT22;8838;50.144;8.176;2023-05-02T05:23:05;10.00;99.90
17442;DHT22;8838;50.144;8.176;2023-05-02T05:25:32;10.00;99.90
17442;DHT22;8838;50.144;8.176;2023-05-02T05:28:00;10.10;99.90
17442;DHT22;8838;50.144;8.176;2023-05-02T05:30:27;10.10;99.90
17442;DHT22;8838;50.144;8.176;2023-05-02T05:32:55;10.10;99.90
17442;DHT22;8838;50.144;8.176;2023-05-02T05:35:23;10.10;99.90
17442;DHT22;8838;50.144;8.176;2023-05-02T05:37:49;10.10;99.90
17442;DHT22;8838;50.144;8.176;2023-05-02T05:40:18;10.20;99.90
17442;DHT22;8838;50.144;8.176;2023-05-02T05:42:45;10.20;99.90
17442;DHT22;8838;50.144;8.176;2023-05-02T05:45:12;10.30;99.90
17442;DHT22;8838;50.144;8.176;2023-05-02T05:47:41;10.30;99.90
17442;DHT22;8838;50.144;8.176;2023-05-02T05:50:08;10.20;99.90
17442;DHT22;8838;50.144;8.176;2023-05-02T05:52:35;10.20;99.90
17442;DHT22;8838;50.144;8.176;2023-05-02T05:55:03;10.20;99.90
17442;DHT22;8838;50.144;8.176;2023-05-02T05:57:31;10.20;99.90
17442;DHT22;8838;50.144;8.176;2023-05-02T05:59:58;10.20;99.90
17442;DHT22;8838;50.144;8.176;2023-05-02T06:02:25;10.20;99.90
17442;DHT22;8838;50.144;8.176;2023-05-02T06:04:51;10.20;99.90
17442;DHT22;8838;50.144;8.176;2023-05-02T06:07:18;10.20;99.90
17442;DHT22;8838;50.144;8.176;2023-05-02T06:09:45;10.20;99.90
17442;DHT22;8838;50.144;8.176;2023-05-02T06:12:12;10.20;99.90
17442;DHT22;8838;50.144;8.176;2023-05-02T06:14:42;10.30;99.90
17442;DHT22;8838;50.144;8.176;2023-05-02T06:17:09;10.20;99.90
17442;DHT22;8838;50.144;8.176;2023-05-02T06:19:36;10.20;99.90
17442;DHT22;8838;50.144;8.176;2023-05-02T06:22:03;10.20;99.90
17442;DHT22;8838;50.144;8.176;2023-05-02T06:24:30;10.30;99.90
17442;DHT22;8838;50.144;8.176;2023-05-02T06:26:57;10.30;99.90
17442;DHT22;8838;50.144;8.176;2023-05-02T06:29:24;10.30;99.90
17442;DHT22;8838;50.144;8.176;2023-05-02T06:31:55;10.30;99.90
17442;DHT22;8838;50.144;8.176;2023-05-02T06:34:22;10.30;99.90
17442;DHT22;8838;50.144;8.176;2023-05-02T06:36:53;10.40;99.90
17442;DHT22;8838;50.144;8.176;2023-05-02T06:39:20;10.40;99.90
17442;DHT22;8838;50.144;8.176;2023-05-02T06:41:46;10.40;99.90
17442;DHT22;8838;50.144;8.176;2023-05-02T06:44:14;10.40;99.90
17442;DHT22;8838;50.144;8.176;2023-05-02T06:46:40;10.40;99.90
17442;DHT22;8838;50.144;8.176;2023-05-02T06:49:09;10.50;99.90
17442;DHT22;8838;50.144;8.176;2023-05-02T06:51:35;10.50;99.90
17442;DHT22;8838;50.144;8.176;2023-05-02T06:54:02;10.60;99.90
17442;DHT22;8838;50.144;8.176;2023-05-02T06:56:29;10.50;99.90
17442;DHT22;8838;50.144;8.176;2023-05-02T06:58:56;10.50;99.90
17442;DHT22;8838;50.144;8.176;2023-05-02T07:01:23;10.50;99.90
17442;DHT22;8838;50.144;8.176;2023-05-02T07:03:50;10.50;99.90
17442;DHT22;8838;50.144;8.176;2023-05-02T07:06:19;10.60;99.90
17442;DHT22;8838;50.144;8.176;2023-05-02T07:08:46;10.50;99.90
17442;DHT22;8838;50.144;8.176;2023-05-02T07:11:12;10.50;99.90
17442;DHT22;8838;50.144;8.176;2023-05-02T07:13:39;10.50;99.90
17442;DHT22;8838;50.144;8.176;2023-05-02T07:16:06;10.50;99.90
17442;DHT22;8838;50.144;8.176;2023-05-02T07:18:33;10.50;99.90
17442;DHT22;8838;50.144;8.176;2023-05-02T07:21:00;10.50;99.90
17442;DHT22;8838;50.144;8.176;2023-05-02T07:23:29;10.60;99.90
17442;DHT22;8838;50.144;8.176;2023-05-02T07:25:56;10.70;99.90
17442;DHT22;8838;50.144;8.176;2023-05-02T07:28:23;10.70;99.90
17442;DHT22;8838;50.144;8.176;2023-05-02T07:30:50;10.70;99.90
17442;DHT22;8838;50.144;8.176;2023-05-02T07:33:17;10.80;99.90
17442;DHT22;8838;50.144;8.176;2023-05-02T07:35:44;10.80;99.90
17442;DHT22;8838;50.144;8.176;2023-05-02T07:38:11;10.80;99.90
17442;DHT22;8838;50.144;8.176;2023-05-02T07:40:39;10.90;99.90
17442;DHT22;8838;50.144;8.176;2023-05-02T07:43:06;10.80;99.90
17442;DHT22;8838;50.144;8.176;2023-05-02T07:45:35;10.80;99.90
17442;DHT22;8838;50.144;8.176;2023-05-02T07:48:02;10.70;99.90
17442;DHT22;8838;50.144;8.176;2023-05-02T07:50:29;10.80;99.90
17442;DHT22;8838;50.144;8.176;2023-05-02T07:52:55;10.80;99.90
17442;DHT22;8838;50.144;8.176;2023-05-02T07:55:22;10.90;99.90
17442;DHT22;8838;50.144;8.176;2023-05-02T07:57:52;10.80;99.90
17442;DHT22;8838;50.144;8.176;2023-05-02T08:00:19;10.80;99.90
17442;DHT22;8838;50.144;8.176;2023-05-02T08:02:46;10.90;99.90
17442;DHT22;8838;50.144;8.176;2023-05-02T08:05:12;10.90;99.90
17442;DHT22;8838;50.144;8.176;2023-05-02T08:07:39;11.00;99.90
17442;DHT22;8838;50.144;8.176;2023-05-02T08:10:08;10.90;99.90
17442;DHT22;8838;50.144;8.176;2023-05-02T08:12:37;10.90;99.90
17442;DHT22;8838;50.144;8.176;2023-05-02T08:15:07;10.90;99.90
17442;DHT22;8838;50.144;8.176;2023-05-02T08:17:34;10.90;99.90
17442;DHT22;8838;50.144;8.176;2023-05-02T08:20:01;11.00;99.90
17442;DHT22;8838;50.144;8.176;2023-05-02T08:22:28;11.00;99.90
17442;DHT22;8838;50.144;8.176;2023-05-02T08:24:55;11.10;99.90
17442;DHT22;8838;50.144;8.176;2023-05-02T08:27:22;11.00;99.90
17442;DHT22;8838;50.144;8.176;2023-05-02T08:29:48;11.00;99.90
17442;DHT22;8838;50.144;8.176;2023-05-02T08:32:16;11.10;99.90
17442;DHT22;8838;50.144;8.176;2023-05-02T08:34:43;11.10;99.90
17442;DHT22;8838;50.144;8.176;2023-05-02T08:37:10;11.10;99.90
17442;DHT22;8838;50.144;8.176;2023-05-02T08:39:37;11.20;99.90
17442;DHT22;8838;50.144;8.176;2023-05-02T08:42:05;11.30;99.90
17442;DHT22;8838;50.144;8.176;2023-05-02T08:44:33;11.50;99.90
17442;DHT22;8838;50.144;8.176;2023-05-02T08:47:00;11.60;99.90
17442;DHT22;8838;50.144;8.176;2023-05-02T08:49:30;11.70;99.90
17442;DHT22;8838;50.144;8.176;2023-05-02T08:51:58;11.70;99.90
17442;DHT22;8838;50.144;8.176;2023-05-02T08:54:27;11.70;99.90
17442;DHT22;8838;50.144;8.176;2023-05-02T08:56:54;11.70;99.90
17442;DHT22;8838;50.144;8.176;2023-05-02T08:59:23;11.60;99.90
17442;DHT22;8838;50.144;8.176;2023-05-02T09:01:57;11.70;99.90
17442;DHT22;8838;50.144;8.176;2023-05-02T09:04:31;11.70;99.90
17442;DHT22;8838;50.144;8.176;2023-05-02T09:06:58;11.80;99.90
17442;DHT22;8838;50.144;8.176;2023-05-02T09:09:25;11.90;99.90
17442;DHT22;8838;50.144;8.176;2023-05-02T09:11:53;12.00;99.90
17442;DHT22;8838;50.144;8.176;2023-05-02T09:14:20;12.00;99.90
17442;DHT22;8838;50.144;8.176;2023-05-02T09:16:48;12.10;99.90
17442;DHT22;8838;50.144;8.176;2023-05-02T09:19:23;12.20;99.90
17442;DHT22;8838;50.144;8.176;2023-05-02T09:21:52;12.20;99.90
17442;DHT22;8838;50.144;8.176;2023-05-02T09:24:24;12.30;99.90
17442;DHT22;8838;50.144;8.176;2023-05-02T09:26:59;12.30;99.90
17442;DHT22;8838;50.144;8.176;2023-05-02T09:29:28;12.30;99.90
17442;DHT22;8838;50.144;8.176;2023-05-02T09:32:00;12.40;99.90
17442;DHT22;8838;50.144;8.176;2023-05-02T09:34:27;12.40;99.90
17442;DHT22;8838;50.144;8.176;2023-05-02T09:36:55;12.50;99.90
17442;DHT22;8838;50.144;8.176;2023-05-02T09:39:24;12.70;99.90
17442;DHT22;8838;50.144;8.176;2023-05-02T09:41:53;12.90;99.90
17442;DHT22;8838;50.144;8.176;2023-05-02T09:44:22;13.00;99.90
17442;DHT22;8838;50.144;8.176;2023-05-02T09:46:50;13.00;99.90
17442;DHT22;8838;50.144;8.176;2023-05-02T09:49:17;13.10;99.90
17442;DHT22;8838;50.144;8.176;2023-05-02T09:51:45;13.20;99.90
17442;DHT22;8838;50.144;8.176;2023-05-02T09:54:13;13.50;99.90
17442;DHT22;8838;50.144;8.176;2023-05-02T09:56:53;14.00;99.90
17442;DHT22;8838;50.144;8.176;2023-05-02T09:59:21;14.70;99.90
17442;DHT22;8838;50.144;8.176;2023-05-02T10:01:54;15.20;99.90
17442;DHT22;8838;50.144;8.176;2023-05-02T10:04:22;15.40;99.90
17442;DHT22;8838;50.144;8.176;2023-05-02T10:06:51;15.80;99.90
17442;DHT22;8838;50.144;8.176;2023-05-02T10:09:20;16.60;99.90
17442;DHT22;8838;50.144;8.176;2023-05-02T10:11:50;17.40;99.90
17442;DHT22;8838;50.144;8.176;2023-05-02T10:14:19;18.00;99.90
17442;DHT22;8838;50.144;8.176;2023-05-02T10:16:54;18.40;99.90
17442;DHT22;8838;50.144;8.176;2023-05-02T10:19:23;18.90;99.90
17442;DHT22;8838;50.144;8.176;2023-05-02T10:21:53;18.60;99.90
17442;DHT22;8838;50.144;8.176;2023-05-02T10:24:23;18.80;99.90
17442;DHT22;8838;50.144;8.176;2023-05-02T10:26:50;18.80;99.90
17442;DHT22;8838;50.144;8.176;2023-05-02T10:29:18;18.80;99.90
17442;DHT22;8838;50.144;8.176;2023-05-02T10:31:45;18.80;99.90
17442;DHT22;8838;50.144;8.176;2023-05-02T10:34:13;19.10;99.90
17442;DHT22;8838;50.144;8.176;2023-05-02T10:36:41;19.50;99.90
17442;DHT22;8838;50.144;8.176;2023-05-02T10:39:08;18.90;99.90
17442;DHT22;8838;50.144;8.176;2023-05-02T10:41:37;18.30;99.90
17442;DHT22;8838;50.144;8.176;2023-05-02T10:44:06;18.70;99.90
17442;DHT22;8838;50.144;8.176;2023-05-02T10:46:34;18.70;99.90
17442;DHT22;8838;50.144;8.176;2023-05-02T10:49:03;18.40;99.90
17442;DHT22;8838;50.144;8.176;2023-05-02T10:51:31;17.90;99.90
17442;DHT22;8838;50.144;8.176;2023-05-02T10:54:20;18.20;99.90
17442;DHT22;8838;50.144;8.176;2023-05-02T10:57:05;18.70;99.90
17442;DHT22;8838;50.144;8.176;2023-05-02T10:59:37;19.30;99.90
17442;DHT22;8838;50.144;8.176;2023-05-02T11:02:04;19.60;99.90
17442;DHT22;8838;50.144;8.176;2023-05-02T11:05:00;20.00;99.90
17442;DHT22;8838;50.144;8.176;2023-05-02T11:07:28;20.30;99.90
17442;DHT22;8838;50.144;8.176;2023-05-02T11:10:25;19.80;99.90
17442;DHT22;8838;50.144;8.176;2023-05-02T11:12:55;18.70;99.90
17442;DHT22;8838;50.144;8.176;2023-05-02T11:15:54;18.40;99.90
17442;DHT22;8838;50.144;8.176;2023-05-02T11:18:24;18.90;99.90
17442;DHT22;8838;50.144;8.176;2023-05-02T11:20:51;18.10;99.90
17442;DHT22;8838;50.144;8.176;2023-05-02T11:23:22;16.80;99.90
17442;DHT22;8838;50.144;8.176;2023-05-02T11:25:52;16.10;99.90
17442;DHT22;8838;50.144;8.176;2023-05-02T11:28:41;15.50;99.90
17442;DHT22;8838;50.144;8.176;2023-05-02T11:34:40;15.80;99.90
17442;DHT22;8838;50.144;8.176;2023-05-02T11:37:11;15.50;99.90
17442;DHT22;8838;50.144;8.176;2023-05-02T11:39:38;15.20;99.90
17442;DHT22;8838;50.144;8.176;2023-05-02T11:42:06;14.80;99.90
17442;DHT22;8838;50.144;8.176;2023-05-02T11:44:54;14.30;99.90
17442;DHT22;8838;50.144;8.176;2023-05-02T11:47:21;14.00;99.90
17442;DHT22;8838;50.144;8.176;2023-05-02T11:49:48;13.80;99.90
17442;DHT22;8838;50.144;8.176;2023-05-02T11:52:15;13.80;99.90
17442;DHT22;8838;50.144;8.176;2023-05-02T11:54:42;13.60;99.90
17442;DHT22;8838;50.144;8.176;2023-05-02T11:57:09;13.50;99.90
17442;DHT22;8838;50.144;8.176;2023-05-02T11:59:50;13.50;99.90
17442;DHT22;8838;50.144;8.176;2023-05-02T12:02:17;13.50;99.90
17442;DHT22;8838;50.144;8.176;2023-05-02T12:04:44;13.30;99.90
17442;DHT22;8838;50.144;8.176;2023-05-02T12:07:11;13.20;99.90
17442;DHT22;8838;50.144;8.176;2023-05-02T12:09:49;13.40;99.90
17442;DHT22;8838;50.144;8.176;2023-05-02T12:12:19;13.40;99.90
17442;DHT22;8838;50.144;8.176;2023-05-02T12:14:45;13.50;99.90
17442;DHT22;8838;50.144;8.176;2023-05-02T12:17:14;13.80;99.90
17442;DHT22;8838;50.144;8.176;2023-05-02T12:19:41;13.90;99.90
17442;DHT22;8838;50.144;8.176;2023-05-02T12:22:08;14.10;99.90
17442;DHT22;8838;50.144;8.176;2023-05-02T12:24:36;14.30;99.90
17442;DHT22;8838;50.144;8.176;2023-05-02T12:27:10;14.40;99.90
17442;DHT22;8838;50.144;8.176;2023-05-02T12:29:38;14.50;99.90
17442;DHT22;8838;50.144;8.176;2023-05-02T12:32:04;14.50;99.90
17442;DHT22;8838;50.144;8.176;2023-05-02T12:34:34;14.50;99.90
17442;DHT22;8838;50.144;8.176;2023-05-02T12:37:01;14.50;99.90
17442;DHT22;8838;50.144;8.176;2023-05-02T12:39:35;14.50;99.90
17442;DHT22;8838;50.144;8.176;2023-05-02T12:42:08;14.60;99.90
17442;DHT22;8838;50.144;8.176;2023-05-02T12:44:36;14.60;99.90
17442;DHT22;8838;50.144;8.176;2023-05-02T12:47:03;14.40;99.90
17442;DHT22;8838;50.144;8.176;2023-05-02T12:49:30;14.50;99.90
17442;DHT22;8838;50.144;8.176;2023-05-02T12:51:58;14.60;99.90
17442;DHT22;8838;50.144;8.176;2023-05-02T12:54:25;14.80;99.90
17442;DHT22;8838;50.144;8.176;2023-05-02T12:56:52;15.10;99.90
17442;DHT22;8838;50.144;8.176;2023-05-02T12:59:26;15.30;99.90
17442;DHT22;8838;50.144;8.176;2023-05-02T13:01:53;15.30;99.90
17442;DHT22;8838;50.144;8.176;2023-05-02T13:04:19;15.30;99.90
17442;DHT22;8838;50.144;8.176;2023-05-02T13:06:46;15.30;99.90
17442;DHT22;8838;50.144;8.176;2023-05-02T13:09:14;15.20;99.90
17442;DHT22;8838;50.144;8.176;2023-05-02T13:11:43;15.70;99.90
17442;DHT22;8838;50.144;8.176;2023-05-02T13:14:10;16.40;99.90
17442;DHT22;8838;50.144;8.176;2023-05-02T13:16:36;16.70;99.90
17442;DHT22;8838;50.144;8.176;2023-05-02T13:19:04;16.90;99.90
17442;DHT22;8838;50.144;8.176;2023-05-02T13:21:31;17.20;99.90
17442;DHT22;8838;50.144;8.176;2023-05-02T13:23:57;17.50;99.90
17442;DHT22;8838;50.144;8.176;2023-05-02T13:26:26;17.60;99.90
17442;DHT22;8838;50.144;8.176;2023-05-02T13:28:52;17.40;99.90
17442;DHT22;8838;50.144;8.176;2023-05-02T13:31:20;17.60;99.90
17442;DHT22;8838;50.144;8.176;2023-05-02T13:33:48;17.50;99.90
17442;DHT22;8838;50.144;8.176;2023-05-02T13:36:14;17.30;99.90
17442;DHT22;8838;50.144;8.176;2023-05-02T13:38:41;17.20;99.90
17442;DHT22;8838;50.144;8.176;2023-05-02T13:41:08;16.90;99.90
17442;DHT22;8838;50.144;8.176;2023-05-02T13:43:37;16.60;99.90
17442;DHT22;8838;50.144;8.176;2023-05-02T13:46:05;16.10;99.90
17442;DHT22;8838;50.144;8.176;2023-05-02T13:48:32;15.90;99.90
17442;DHT22;8838;50.144;8.176;2023-05-02T13:50:58;16.00;99.90
17442;DHT22;8838;50.144;8.176;2023-05-02T13:53:25;16.20;99.90
17442;DHT22;8838;50.144;8.176;2023-05-02T13:55:52;16.30;99.90
17442;DHT22;8838;50.144;8.176;2023-05-02T13:58:19;16.20;99.90
17442;DHT22;8838;50.144;8.176;2023-05-02T14:00:47;16.20;99.90
17442;DHT22;8838;50.144;8.176;2023-05-02T14:03:15;16.10;99.90
17442;DHT22;8838;50.144;8.176;2023-05-02T14:05:42;16.50;99.90
17442;DHT22;8838;50.144;8.176;2023-05-02T14:08:09;16.90;99.90
17442;DHT22;8838;50.144;8.176;2023-05-02T14:10:36;17.10;99.90
17442;DHT22;8838;50.144;8.176;2023-05-02T14:13:03;17.00;99.90
17442;DHT22;8838;50.144;8.176;2023-05-02T14:15:30;17.10;99.90
17442;DHT22;8838;50.144;8.176;2023-05-02T14:17:58;16.70;99.90
17442;DHT22;8838;50.144;8.176;2023-05-02T14:20:25;16.70;99.90
17442;DHT22;8838;50.144;8.176;2023-05-02T14:22:52;16.90;99.90
17442;DHT22;8838;50.144;8.176;2023-05-02T14:25:19;16.90;99.90
17442;DHT22;8838;50.144;8.176;2023-05-02T14:27:45;16.90;99.90
17442;DHT22;8838;50.144;8.176;2023-05-02T14:30:12;17.00;99.90
17442;DHT22;8838;50.144;8.176;2023-05-02T14:32:39;17.30;99.90
17442;DHT22;8838;50.144;8.176;2023-05-02T14:35:08;17.20;99.90
17442;DHT22;8838;50.144;8.176;2023-05-02T14:37:35;17.30;99.90
17442;DHT22;8838;50.144;8.176;2023-05-02T14:40:02;17.40;99.90
17442;DHT22;8838;50.144;8.176;2023-05-02T14:42:29;17.40;99.90
17442;DHT22;8838;50.144;8.176;2023-05-02T14:44:56;17.10;99.90
17442;DHT22;8838;50.144;8.176;2023-05-02T14:47:27;17.00;99.90
17442;DHT22;8838;50.144;8.176;2023-05-02T14:49:54;17.10;99.90
17442;DHT22;8838;50.144;8.176;2023-05-02T14:52:22;17.30;99.90
17442;DHT22;8838;50.144;8.176;2023-05-02T14:54:49;17.30;99.90
17442;DHT22;8838;50.144;8.176;2023-05-02T14:57:16;17.40;99.90
17442;DHT22;8838;50.144;8.176;2023-05-02T14:59:43;17.60;99.90
17442;DHT22;8838;50.144;8.176;2023-05-02T15:02:10;17.60;99.90
17442;DHT22;8838;50.144;8.176;2023-05-02T15:04:37;17.70;99.90
17442;DHT22;8838;50.144;8.176;2023-05-02T15:07:03;17.70;99.90
17442;DHT22;8838;50.144;8.176;2023-05-02T15:09:32;17.60;99.90
17442;DHT22;8838;50.144;8.176;2023-05-02T15:11:59;17.50;99.90
17442;DHT22;8838;50.144;8.176;2023-05-02T15:14:27;17.50;99.90
17442;DHT22;8838;50.144;8.176;2023-05-02T15:16:54;17.50;99.90
17442;DHT22;8838;50.144;8.176;2023-05-02T15:19:21;17.40;99.90
17442;DHT22;8838;50.144;8.176;2023-05-02T15:21:49;17.20;99.90
17442;DHT22;8838;50.144;8.176;2023-05-02T15:24:17;17.10;99.90
17442;DHT22;8838;50.144;8.176;2023-05-02T15:26:45;17.20;99.90
17442;DHT22;8838;50.144;8.176;2023-05-02T15:29:12;17.30;99.90
17442;DHT22;8838;50.144;8.176;2023-05-02T15:31:39;17.30;99.90
17442;DHT22;8838;50.144;8.176;2023-05-02T15:34:06;17.40;99.90
17442;DHT22;8838;50.144;8.176;2023-05-02T15:36:32;17.40;99.90
17442;DHT22;8838;50.144;8.176;2023-05-02T15:39:01;17.50;99.90
17442;DHT22;8838;50.144;8.176;2023-05-02T15:41:28;17.40;99.90
17442;DHT22;8838;50.144;8.176;2023-05-02T15:43:57;17.40;99.90
17442;DHT22;8838;50.144;8.176;2023-05-02T15:46:24;17.30;99.90
17442;DHT22;8838;50.144;8.176;2023-05-02T15:48:51;17.10;99.90
17442;DHT22;8838;50.144;8.176;2023-05-02T15:51:18;17.10;99.90
17442;DHT22;8838;50.144;8.176;2023-05-02T15:53:45;17.10;99.90
17442;DHT22;8838;50.144;8.176;2023-05-02T15:56:14;17.00;99.90
17442;DHT22;8838;50.144;8.176;2023-05-02T15:58:41;17.00;99.90
17442;DHT22;8838;50.144;8.176;2023-05-02T16:01:09;17.00;99.90
17442;DHT22;8838;50.144;8.176;2023-05-02T16:03:36;17.00;99.90